Time;durP1;ratioP1;P1;durP2;ratioP2;P2;SDS_P1;SDS_P2;PMS_P1;PMS_P2;Temp;Humidity;BMP_temperature;BMP_pressure;BME280_temperature;BME280_humidity;BME280_pressure;Samples;Min_cycle;Max_cycle;Signal;HPM_P1;HPM_P2
2022/02/05 00:02:13;;;;;;;31.65;16.35;;;;;;;-3.72;63.05;141374.13;1749290;81;21004;-61
2022/02/05 00:04:37;;;;;;;27.85;14.00;;;;;;;-3.72;63.13;141372.89;1748967;81;21021;-57
2022/02/05 00:07:07;;;;;;;28.67;12.82;;;;;;;-3.79;63.38;141356.81;1749270;81;20988;-60
2022/02/05 00:12:32;;;;;;;27.25;14.07;;;;;;;-3.89;63.78;141332.05;1749328;81;21016;-60
2022/02/05 00:41:47;;;;;;;23.57;11.08;;;;;;;-3.94;64.00;141319.66;1749274;81;21475;-59
2022/02/05 00:44:04;;;;;;;25.57;12.30;;;;;;;-3.95;64.14;141317.16;1748291;81;21443;-58
2022/02/05 00:46:36;;;;;;;19.62;10.18;;;;;;;-3.94;64.19;141320.89;1749226;81;21450;-60
2022/02/05 00:49:00;;;;;;;21.80;10.63;;;;;;;-3.88;63.76;141334.50;1748991;81;20972;-60
2022/02/05 00:51:33;;;;;;;26.65;11.15;;;;;;;-3.84;63.99;141343.16;1749244;82;20997;-58
2022/02/05 00:55:03;;;;;;;26.25;11.65;;;;;;;-3.84;64.01;141343.16;1748998;81;20973;-61
2022/02/05 00:59:08;;;;;;;25.20;11.73;;;;;;;-3.83;63.79;141345.66;1749263;82;21016;-61
2022/02/05 01:01:35;;;;;;;26.42;10.70;;;;;;;-3.85;64.02;141341.92;1749242;81;21012;-59
2022/02/05 01:04:04;;;;;;;21.55;11.15;;;;;;;-3.84;63.91;141344.44;1749283;81;20973;-61
2022/02/05 01:06:31;;;;;;;25.30;11.95;;;;;;;-3.86;64.11;141339.47;1749251;82;20961;-60
2022/02/05 01:08:58;;;;;;;27.90;11.80;;;;;;;-3.87;64.24;141336.97;1749224;82;21005;-57
2022/02/05 01:11:25;;;;;;;23.27;10.25;;;;;;;-3.87;64.35;141336.97;1749226;81;21458;-60
2022/02/05 01:13:55;;;;;;;21.17;10.40;;;;;;;-3.81;64.48;141350.63;1749293;81;21468;-62
2022/02/05 01:16:38;;;;;;;23.90;11.05;;;;;;;-3.79;64.52;141355.53;1749434;81;21470;-58
2022/02/05 01:53:24;;;;;;;23.27;11.78;;;;;;;-3.90;66.17;141329.53;1749120;82;20996;-59
2022/02/05 01:55:19;;;;;;;21.87;11.33;;;;;;;-3.93;66.49;141322.13;1727796;82;21027;-60
2022/02/05 02:05:38;;;;;;;22.40;11.30;;;;;;;-3.94;66.87;141320.89;1749232;82;21036;-59
2022/02/05 02:16:14;;;;;;;30.52;14.20;;;;;;;-3.86;66.96;141339.47;1749106;82;20986;-59
2022/02/05 02:26:33;;;;;;;27.22;14.00;;;;;;;-3.85;67.48;141341.92;1749136;82;21008;-61
2022/02/05 02:31:20;;;;;;;28.10;13.80;;;;;;;-3.89;67.66;141332.05;1749090;82;20946;-60
2022/02/05 02:33:47;;;;;;;26.57;15.03;;;;;;;-3.93;67.91;141322.13;1748693;81;21028;-61
2022/02/05 02:36:23;;;;;;;27.02;14.47;;;;;;;-4.00;67.99;141304.78;1748952;81;21039;-60
2022/02/05 02:38:47;;;;;;;26.60;13.68;;;;;;;-4.03;68.16;141297.34;1748261;81;21009;-61
2022/02/05 02:41:22;;;;;;;29.82;15.32;;;;;;;-4.01;67.99;141302.31;1748800;81;21499;-62
2022/02/05 02:43:41;;;;;;;31.07;14.58;;;;;;;-4.01;67.95;141302.31;1747903;81;21036;-62
2022/02/05 02:46:08;;;;;;;28.70;14.70;;;;;;;-4.02;67.98;141299.81;1749077;82;20965;-61
2022/02/05 02:48:36;;;;;;;26.15;14.23;;;;;;;-4.05;68.03;141293.63;1748920;81;21028;-65
2022/02/05 02:56:44;;;;;;;26.75;13.70;;;;;;;-4.15;68.28;141270.12;1749070;82;21109;-62
2022/02/05 02:59:08;;;;;;;31.45;16.80;;;;;;;-4.19;68.41;141260.20;1747979;81;21463;-63
2022/02/05 03:01:36;;;;;;;30.48;16.60;;;;;;;-4.20;68.61;141257.75;1748862;81;20984;-63
2022/02/05 03:04:01;;;;;;;30.70;15.68;;;;;;;-4.24;68.82;141247.83;1748941;81;20958;-58
2022/02/05 03:06:28;;;;;;;31.07;15.32;;;;;;;-4.18;68.79;141262.66;1749023;82;20984;-61
2022/02/05 03:08:54;;;;;;;30.40;15.32;;;;;;;-4.10;68.77;141281.23;1749083;82;21025;-59
2022/02/05 03:11:23;;;;;;;34.15;17.35;;;;;;;-4.05;68.64;141293.63;1749016;82;21020;-60
2022/02/05 03:13:51;;;;;;;35.08;16.20;;;;;;;-4.10;68.88;141280.00;1749049;81;20937;-60
2022/02/05 03:16:28;;;;;;;34.20;17.85;;;;;;;-4.12;69.05;141275.05;1749072;81;21509;-58
2022/02/05 03:21:23;;;;;;;25.08;13.32;;;;;;;-4.11;69.37;141277.55;1749106;82;21020;-58
2022/02/05 03:23:49;;;;;;;33.38;17.12;;;;;;;-4.12;69.50;141275.05;1749050;81;21430;-57
2022/02/05 03:26:16;;;;;;;35.30;17.52;;;;;;;-4.19;69.85;141260.20;1749017;82;21004;-58
2022/02/05 03:28:42;;;;;;;36.65;17.07;;;;;;;-4.21;70.19;141255.25;1748998;82;21016;-57
2022/02/05 03:31:09;;;;;;;32.20;16.12;;;;;;;-4.18;70.13;141261.44;1749011;81;21035;-63
2022/02/05 03:33:37;;;;;;;34.20;16.93;;;;;;;-4.16;70.16;141267.63;1749051;81;20981;-63
2022/02/05 03:36:04;;;;;;;38.30;17.15;;;;;;;-4.16;70.35;141267.63;1749040;81;20988;-61
2022/02/05 03:38:32;;;;;;;36.75;17.30;;;;;;;-4.12;70.33;141276.31;1749041;81;21503;-64
2022/02/05 03:40:59;;;;;;;33.67;16.12;;;;;;;-4.05;70.15;141293.63;1749048;81;21468;-61
2022/02/05 03:43:25;;;;;;;34.10;18.00;;;;;;;-4.05;70.15;141292.39;1749048;82;20975;-61
2022/02/05 03:45:52;;;;;;;35.83;17.12;;;;;;;-4.04;70.38;141294.89;1749014;81;20991;-63
2022/02/05 03:48:19;;;;;;;32.28;16.10;;;;;;;-4.03;70.50;141297.34;1749986;82;20992;-63
2022/02/05 03:50:45;;;;;;;34.03;17.60;;;;;;;-4.05;70.67;141292.39;1754599;80;21486;-62
2022/02/05 03:53:12;;;;;;;34.48;17.50;;;;;;;-4.08;70.92;141284.97;1751557;82;21020;-61
2022/02/05 03:55:41;;;;;;;38.17;19.00;;;;;;;-4.12;71.41;141275.05;1747262;82;20989;-63
2022/02/05 03:58:07;;;;;;;34.27;17.12;;;;;;;-4.09;71.38;141282.52;1747227;81;21431;-63
2022/02/05 04:00:34;;;;;;;31.80;14.75;;;;;;;-4.04;71.43;141296.13;1747359;81;20981;-60
2022/02/05 04:03:02;;;;;;;31.17;15.98;;;;;;;-4.01;71.36;141302.31;1747768;82;21124;-63
2022/02/05 04:05:29;;;;;;;41.83;19.57;;;;;;;-4.05;71.56;141293.63;1747215;81;20989;-64
2022/02/05 04:07:57;;;;;;;35.15;18.02;;;;;;;-4.07;71.82;141288.70;1747201;82;20977;-63
2022/02/05 04:10:32;;;;;;;34.92;16.37;;;;;;;-4.02;72.09;141299.81;1747296;82;20977;-58
2022/02/05 04:18:28;;;;;;;32.58;16.77;;;;;;;-4.17;73.21;141265.17;1671242;84;21544;-59
2022/02/05 04:20:54;;;;;;;30.90;16.25;;;;;;;-4.22;73.75;141252.78;1722632;81;21024;-60
2022/02/05 04:23:21;;;;;;;31.23;17.35;;;;;;;-4.17;74.27;141265.17;1747272;81;20992;-56
2022/02/05 04:25:48;;;;;;;29.42;14.87;;;;;;;-4.20;74.56;141256.47;1747699;81;21459;-56
2022/02/05 04:28:14;;;;;;;27.22;13.40;;;;;;;-4.18;74.99;141262.66;1747224;81;20973;-53
2022/02/05 04:30:41;;;;;;;34.03;16.20;;;;;;;-4.11;76.69;141277.55;1747263;82;20957;-57
2022/02/05 04:33:08;;;;;;;35.23;15.32;;;;;;;-4.05;76.05;141292.39;1747255;81;21028;-58
2022/02/05 04:35:35;;;;;;;35.50;15.38;;;;;;;-4.00;76.11;141304.78;1747530;82;21435;-57
2022/02/05 04:38:05;;;;;;;32.90;16.07;;;;;;;-3.98;76.32;141309.73;1747305;82;20989;-57
2022/02/05 04:40:37;;;;;;;30.88;15.30;;;;;;;-3.98;76.41;141309.73;1747176;81;21515;-59
2022/02/05 04:48:40;;;;;;;31.10;15.80;;;;;;;-3.93;76.68;141322.13;1747150;82;20989;-63
2022/02/05 04:59:23;;;;;;;29.35;15.68;;;;;;;-3.93;77.31;141323.34;1749103;81;20984;-60
2022/02/05 05:02:08;;;;;;;27.13;15.65;;;;;;;-3.91;77.57;141327.08;1746603;82;21000;-59
2022/02/05 05:09:36;;;;;;;29.05;14.38;;;;;;;-4.01;78.43;141302.31;1749114;81;20985;-61
2022/02/05 05:12:19;;;;;;;29.57;15.43;;;;;;;-4.06;78.77;141289.94;1748522;81;20977;-59
2022/02/05 05:19:47;;;;;;;27.98;15.78;;;;;;;-4.01;79.31;141303.55;1749135;82;20988;-58
2022/02/05 05:22:17;;;;;;;29.32;16.25;;;;;;;-3.98;79.44;141309.73;1749101;81;21024;-59
2022/02/05 05:24:43;;;;;;;31.55;15.40;;;;;;;-4.01;79.64;141303.55;1749116;82;20980;-60
2022/02/05 05:27:10;;;;;;;33.30;15.48;;;;;;;-4.00;79.95;141304.78;1749140;82;21462;-60
2022/02/05 05:29:37;;;;;;;27.87;14.45;;;;;;;-3.93;79.88;141322.13;1749111;81;20992;-61
2022/02/05 05:32:05;;;;;;;32.55;15.78;;;;;;;-3.98;80.12;141310.97;1749107;82;21028;-59
2022/02/05 05:34:32;;;;;;;29.00;13.93;;;;;;;-4.00;80.47;141304.78;1749102;81;21503;-60
2022/02/05 05:37:01;;;;;;;26.73;13.85;;;;;;;-3.98;80.71;141309.73;1749084;82;21012;-61
2022/02/05 05:39:31;;;;;;;32.00;15.63;;;;;;;-3.96;80.87;141315.94;1749088;82;20965;-59
2022/02/05 05:41:57;;;;;;;29.55;15.05;;;;;;;-3.99;81.18;141307.28;1749060;82;20984;-59
2022/02/05 05:47:17;;;;;;;30.25;15.55;;;;;;;-4.01;81.91;141302.31;1749120;82;20956;-64
2022/02/05 05:49:56;;;;;;;31.45;14.98;;;;;;;-3.96;82.14;141314.70;1747308;81;21004;-61
2022/02/05 05:52:05;;;;;;;30.32;16.07;;;;;;;-3.96;82.48;141314.70;1746490;81;21005;-62
2022/02/05 05:54:31;;;;;;;28.25;13.55;;;;;;;-3.94;82.74;141319.66;1747814;81;20997;-61
2022/02/05 05:56:58;;;;;;;33.42;16.93;;;;;;;-3.87;82.84;141336.97;1747214;82;20973;-62
2022/02/05 05:59:24;;;;;;;26.33;13.60;;;;;;;-3.89;83.11;141332.05;1747330;82;20980;-61
2022/02/05 06:01:51;;;;;;;25.45;15.08;;;;;;;-3.84;83.27;141344.44;1747321;82;21462;-55
2022/02/05 06:04:18;;;;;;;27.07;13.83;;;;;;;-3.78;83.30;141358.05;1747457;82;20981;-61
2022/02/05 06:06:45;;;;;;;29.98;15.35;;;;;;;-3.75;83.59;141366.69;1747557;81;20977;-64
2022/02/05 06:09:12;;;;;;;27.65;13.18;;;;;;;-3.66;83.69;141386.50;1747635;81;21032;-57
2022/02/05 06:11:39;;;;;;;29.98;14.90;;;;;;;-3.60;83.74;141401.41;1747343;82;20985;-59
2022/02/05 06:14:06;;;;;;;28.57;14.73;;;;;;;-3.59;83.92;141405.09;1747381;82;20973;-60
2022/02/05 06:16:34;;;;;;;28.83;14.75;;;;;;;-3.50;83.87;141426.17;1747380;81;21494;-60
2022/02/05 06:19:00;;;;;;;24.98;13.58;;;;;;;-3.49;83.93;141428.63;1747475;81;20954;-58
2022/02/05 06:21:27;;;;;;;31.12;15.23;;;;;;;-3.40;83.97;141450.95;1747316;82;20977;-61
2022/02/05 06:23:54;;;;;;;28.02;13.85;;;;;;;-3.28;83.73;141479.47;1747463;82;20937;-61
2022/02/05 06:26:21;;;;;;;25.02;14.05;;;;;;;-3.19;83.20;141500.52;1747352;82;20975;-63
2022/02/05 06:28:47;;;;;;;30.80;14.60;;;;;;;-3.18;83.22;141502.97;1747497;81;21452;-59
2022/02/05 06:31:14;;;;;;;29.18;15.03;;;;;;;-3.09;83.17;141526.53;1747411;82;20965;-59
2022/02/05 06:33:41;;;;;;;30.60;15.40;;;;;;;-3.11;83.06;141521.56;1747272;82;20969;-56
2022/02/05 06:36:07;;;;;;;27.42;15.25;;;;;;;-3.11;83.36;141520.34;1747241;82;20993;-55
2022/02/05 06:38:34;;;;;;;26.45;15.32;;;;;;;-3.17;83.74;141505.48;1747442;81;20988;-56
2022/02/05 06:41:01;;;;;;;29.82;14.80;;;;;;;-3.24;83.96;141488.13;1747368;82;21440;-57
2022/02/05 06:43:28;;;;;;;28.35;15.38;;;;;;;-3.19;84.33;141501.75;1747637;81;20969;-59
2022/02/05 06:45:55;;;;;;;27.25;14.60;;;;;;;-3.13;84.29;141516.66;1747287;81;21017;-63
2022/02/05 06:48:22;;;;;;;32.67;15.35;;;;;;;-3.11;84.65;141520.34;1747473;82;21515;-61
2022/02/05 06:50:48;;;;;;;29.95;15.60;;;;;;;-3.16;84.85;141507.94;1748822;81;21498;-54
2022/02/05 06:53:15;;;;;;;30.55;15.35;;;;;;;-3.16;85.56;141507.94;1749046;81;20989;-56
2022/02/05 06:55:42;;;;;;;29.50;15.20;;;;;;;-3.10;85.91;141522.84;1749040;81;21004;-58
2022/02/05 06:58:09;;;;;;;30.02;15.68;;;;;;;-3.00;86.26;141547.64;1749059;82;20937;-57
2022/02/05 07:00:36;;;;;;;30.37;16.02;;;;;;;-2.98;86.26;141552.55;1749016;81;20988;-62
2022/02/05 07:03:04;;;;;;;29.05;15.48;;;;;;;-2.97;86.77;141555.06;1749096;82;20961;-59
2022/02/05 07:05:33;;;;;;;29.42;15.63;;;;;;;-3.02;87.08;141541.44;1749034;81;20973;-56
2022/02/05 07:08:01;;;;;;;32.30;17.50;;;;;;;-3.06;88.22;141532.73;1749019;81;21141;-59
2022/02/05 07:10:28;;;;;;;27.48;15.35;;;;;;;-2.96;88.94;141557.53;1749029;81;20957;-62
2022/02/05 07:13:16;;;;;;;28.92;15.75;;;;;;;-2.92;89.32;141567.45;1749022;82;20977;-60
2022/02/05 07:15:53;;;;;;;28.27;15.58;;;;;;;-2.99;89.79;141550.09;1748860;81;21448;-62
2022/02/05 07:18:23;;;;;;;33.05;16.67;;;;;;;-3.00;90.58;141547.64;1747209;81;21464;-60
2022/02/05 07:20:50;;;;;;;36.75;19.20;;;;;;;-2.96;91.15;141557.53;1748446;81;21447;-61
2022/02/05 07:31:09;;;;;;;33.40;15.70;;;;;;;-2.91;92.36;141569.91;1749018;81;20981;-63
2022/02/05 07:33:37;;;;;;;29.87;16.30;;;;;;;-2.86;92.39;141581.08;1748756;81;21446;-61
2022/02/05 07:36:04;;;;;;;26.02;14.98;;;;;;;-2.74;92.30;141609.62;1747357;82;21008;-62
2022/02/05 07:38:32;;;;;;;25.55;14.07;;;;;;;-2.52;92.35;141664.19;1748817;82;21427;-56
2022/02/05 07:40:59;;;;;;;33.08;17.60;;;;;;;-2.27;91.75;141723.69;1745724;82;20956;-59
2022/02/05 07:43:28;;;;;;;34.30;16.77;;;;;;;-2.20;90.99;141741.06;1744340;82;20961;-56
2022/02/05 07:45:56;;;;;;;30.43;15.25;;;;;;;-2.14;90.60;141755.92;1748916;82;21451;-58
2022/02/05 07:48:22;;;;;;;27.45;15.15;;;;;;;-2.25;90.76;141728.66;1748902;82;20942;-57
2022/02/05 07:50:49;;;;;;;32.48;15.30;;;;;;;-2.41;91.48;141690.22;1748836;81;21552;-62
2022/02/05 07:53:16;;;;;;;29.07;15.40;;;;;;;-2.52;92.52;141662.91;1748843;81;21506;-58
2022/02/05 07:55:42;;;;;;;28.67;15.85;;;;;;;-2.62;93.51;141640.61;1745583;80;20971;-58
2022/02/05 07:58:09;;;;;;;32.33;17.07;;;;;;;-2.71;94.54;141617.05;1746666;82;20965;-57
2022/02/05 08:00:38;;;;;;;28.32;16.02;;;;;;;-2.76;95.17;141604.66;1744885;81;20943;-56
2022/02/05 08:03:04;;;;;;;28.70;13.90;;;;;;;-2.79;96.00;141598.45;1748565;82;20952;-57
2022/02/05 08:05:33;;;;;;;32.75;15.78;;;;;;;-2.71;96.14;141618.28;1748468;82;21521;-59
2022/02/05 08:08:00;;;;;;;29.25;16.05;;;;;;;-2.68;95.91;141624.47;1748775;82;21474;-55
2022/02/05 08:10:32;;;;;;;30.37;16.25;;;;;;;-2.63;95.86;141636.88;1748851;81;20983;-58
2022/02/05 08:12:58;;;;;;;29.60;15.78;;;;;;;-2.52;95.70;141664.19;1744474;81;21440;-57
2022/02/05 08:15:28;;;;;;;30.43;16.77;;;;;;;-2.41;95.17;141690.22;1748703;81;20975;-59
2022/02/05 08:17:58;;;;;;;34.15;14.73;;;;;;;-2.41;94.92;141691.44;1744660;82;20956;-60
2022/02/05 08:20:25;;;;;;;33.00;16.77;;;;;;;-2.41;94.71;141691.44;1748798;81;20957;-54
2022/02/05 08:22:51;;;;;;;29.63;15.38;;;;;;;-2.42;94.58;141688.98;1734961;82;21008;-54
2022/02/05 08:25:18;;;;;;;35.08;17.40;;;;;;;-2.32;94.47;141711.28;1747629;81;21436;-60
2022/02/05 08:27:45;;;;;;;30.68;15.90;;;;;;;-2.17;94.06;141748.48;1748677;81;20994;-56
2022/02/05 08:30:14;;;;;;;32.75;17.50;;;;;;;-2.07;93.28;141773.30;1748823;81;20973;-56
2022/02/05 08:32:44;;;;;;;30.10;17.40;;;;;;;-1.98;93.11;141795.66;1748521;81;20974;-59
2022/02/05 08:35:11;;;;;;;28.50;17.02;;;;;;;-1.80;92.88;141837.84;1748735;81;21504;-57
2022/02/05 08:37:44;;;;;;;30.15;17.10;;;;;;;-1.64;91.79;141877.53;1748906;81;20963;-57
2022/02/05 08:40:10;;;;;;;27.55;15.45;;;;;;;-1.52;91.21;141906.09;1749008;81;20993;-56
2022/02/05 08:42:37;;;;;;;31.02;15.95;;;;;;;-1.44;90.53;141924.72;1748908;81;21005;-59
2022/02/05 08:45:06;;;;;;;31.20;15.50;;;;;;;-1.35;89.84;141947.03;1749146;82;21009;-60
2022/02/05 08:47:34;;;;;;;34.75;17.50;;;;;;;-1.38;89.00;141939.59;1748983;81;20941;-59
2022/02/05 08:50:00;;;;;;;32.15;17.77;;;;;;;-1.34;89.23;141949.55;1748923;81;21039;-62
2022/02/05 08:52:28;;;;;;;32.08;18.60;;;;;;;-1.32;88.78;141955.75;1747907;81;21500;-61
2022/02/05 08:54:57;;;;;;;33.55;17.12;;;;;;;-1.23;88.64;141976.84;1747297;81;20989;-60
2022/02/05 08:57:24;;;;;;;33.98;17.42;;;;;;;-1.13;88.46;142001.67;1747636;81;20947;-61
2022/02/05 09:05:26;;;;;;;34.45;17.82;;;;;;;-1.00;87.27;142031.47;1720886;80;20988;-59
2022/02/05 09:07:21;;;;;;;36.40;17.02;;;;;;;-0.91;87.09;142053.84;1747888;80;20988;-59
2022/02/05 09:15:08;;;;;;;35.92;19.02;;;;;;;-0.99;87.03;142033.94;1740663;81;20957;-55
2022/02/05 09:17:35;;;;;;;42.08;20.00;;;;;;;-0.88;86.93;142062.53;1744042;82;21121;-58
2022/02/05 09:20:04;;;;;;;32.75;18.40;;;;;;;-0.85;86.86;142068.73;1740016;82;21479;-56
2022/02/05 09:22:33;;;;;;;35.05;17.98;;;;;;;-0.80;86.72;142081.16;1743945;81;21044;-60
2022/02/05 09:24:59;;;;;;;38.33;20.23;;;;;;;-0.77;86.55;142088.59;1744084;81;21482;-61
2022/02/05 09:27:37;;;;;;;38.33;20.48;;;;;;;-0.76;86.79;142089.87;1743296;81;20941;-60
2022/02/05 09:30:04;;;;;;;35.30;20.95;;;;;;;-0.68;86.69;142109.73;1743507;81;21003;-58
2022/02/05 09:32:31;;;;;;;36.98;20.32;;;;;;;-0.61;86.33;142127.14;1744398;81;20952;-56
2022/02/05 09:34:58;;;;;;;32.83;18.57;;;;;;;-0.51;86.19;142150.70;1742984;81;20980;-55
2022/02/05 09:37:25;;;;;;;32.50;19.67;;;;;;;-0.52;85.86;142148.23;1743948;81;20953;-57
2022/02/05 09:39:51;;;;;;;34.38;19.40;;;;;;;-0.50;85.86;142154.45;1743501;81;20961;-57
2022/02/05 09:42:18;;;;;;;37.45;20.05;;;;;;;-0.40;85.77;142178.06;1744222;81;21469;-59
2022/02/05 09:44:45;;;;;;;35.95;18.35;;;;;;;-0.30;85.41;142202.91;1743266;82;20952;-59
2022/02/05 09:47:12;;;;;;;32.78;19.07;;;;;;;-0.20;84.90;142225.25;1743537;81;20957;-58
2022/02/05 09:49:40;;;;;;;42.60;22.73;;;;;;;-0.16;84.53;142236.45;1716875;83;20989;-57
2022/02/05 09:52:10;;;;;;;38.40;19.30;;;;;;;-0.19;84.46;142227.77;1751392;81;21045;-55
2022/02/05 09:54:39;;;;;;;37.63;21.07;;;;;;;-0.18;84.55;142230.23;1751166;80;20956;-57
2022/02/05 09:57:07;;;;;;;33.50;18.32;;;;;;;-0.16;84.43;142235.22;1741425;81;20988;-58
2022/02/05 09:59:48;;;;;;;38.75;19.98;;;;;;;-0.18;84.28;142230.23;1747148;81;21204;-57
2022/02/05 10:02:33;;;;;;;36.65;20.25;;;;;;;-0.21;84.53;142224.02;1746721;81;21435;-60
2022/02/05 10:05:09;;;;;;;39.05;20.65;;;;;;;-0.18;84.34;142231.47;1747097;81;21001;-59
2022/02/05 10:07:59;;;;;;;39.67;21.23;;;;;;;-0.16;84.26;142235.22;1746704;81;21052;-57
2022/02/05 10:10:31;;;;;;;35.50;18.00;;;;;;;-0.11;84.23;142247.64;1745628;82;21495;-55
2022/02/05 10:13:18;;;;;;;37.48;19.55;;;;;;;-0.13;83.99;142243.89;1738852;82;20946;-59
2022/02/05 10:15:53;;;;;;;36.28;19.30;;;;;;;-0.19;84.46;142227.77;1746282;82;20977;-57
2022/02/05 10:18:36;;;;;;;32.93;18.20;;;;;;;-0.16;84.52;142235.22;1742672;81;21432;-61
2022/02/05 10:21:23;;;;;;;38.00;18.52;;;;;;;-0.17;84.53;142233.98;1747151;81;21002;-58
2022/02/05 10:24:04;;;;;;;34.58;20.65;;;;;;;-0.18;84.96;142230.23;1747086;81;21449;-57
2022/02/05 10:26:36;;;;;;;36.57;21.43;;;;;;;-0.28;85.34;142207.89;1747231;81;21498;-58
2022/02/05 10:29:14;;;;;;;37.17;21.20;;;;;;;-0.20;85.40;142226.53;1746872;81;20914;-57
2022/02/05 10:32:04;;;;;;;41.40;22.30;;;;;;;-0.16;85.45;142235.22;1747307;82;21451;-59
2022/02/05 10:34:33;;;;;;;40.33;21.12;;;;;;;-0.06;85.45;142260.06;1743190;82;20922;-59
2022/02/05 10:37:14;;;;;;;42.62;24.27;;;;;;;-0.01;85.20;142273.73;1746965;81;21033;-55
2022/02/05 10:45:09;;;;;;;39.23;21.62;;;;;;;-0.10;86.02;142250.11;1747216;82;20957;-63
2022/02/05 10:47:58;;;;;;;36.80;21.48;;;;;;;-0.13;86.31;142243.89;1751804;81;20938;-58
2022/02/05 10:50:28;;;;;;;42.13;21.87;;;;;;;-0.13;86.74;142243.89;1764597;80;20992;-58
2022/02/05 10:53:03;;;;;;;43.58;22.55;;;;;;;-0.09;87.08;142252.63;1769471;80;20972;-63
2022/02/05 10:58:30;;;;;;;39.23;22.75;;;;;;;-0.15;88.01;142237.69;1764225;81;20976;-57
2022/02/05 11:05:58;;;;;;;43.05;24.10;;;;;;;0.11;88.27;142301.11;1757138;81;21455;-58
2022/02/05 11:08:25;;;;;;;44.45;22.35;;;;;;;0.18;88.34;142319.75;1745468;81;20997;-66
2022/02/05 11:21:06;;;;;;;46.50;24.67;;;;;;;0.32;89.50;142352.06;1769358;81;21482;-61
2022/02/05 11:23:34;;;;;;;41.37;23.77;;;;;;;0.38;89.57;142366.97;1750172;81;20996;-61
2022/02/05 11:26:05;;;;;;;38.65;22.07;;;;;;;0.45;89.40;142384.38;1746589;81;20970;-58
2022/02/05 11:28:58;;;;;;;39.00;22.85;;;;;;;0.48;89.18;142391.83;1757719;81;21462;-59
2022/02/05 11:31:38;;;;;;;;;;;;;;;0.51;89.34;142399.33;1768424;81;21023;-63
2022/02/05 11:34:18;;;;;;;39.05;20.48;;;;;;;0.53;89.34;142403.03;1768555;80;20119;-61
2022/02/05 11:36:58;;;;;;;53.30;25.62;;;;;;;0.53;89.44;142403.03;1765612;80;21722;-60
2022/02/05 11:39:25;;;;;;;42.45;22.65;;;;;;;0.56;89.39;142411.77;1733550;81;21000;-60
2022/02/05 11:41:52;;;;;;;42.38;22.10;;;;;;;0.61;89.26;142422.92;1756096;81;20959;-63
2022/02/05 11:44:30;;;;;;;45.70;24.63;;;;;;;0.72;89.33;142450.31;1769205;81;21529;-60
2022/02/05 11:47:14;;;;;;;40.17;23.35;;;;;;;0.83;88.72;142476.42;1765759;80;21454;-62
2022/02/05 11:49:58;;;;;;;40.55;23.22;;;;;;;0.89;88.11;142491.38;1738728;82;21491;-63
2022/02/05 11:52:45;;;;;;;43.75;22.62;;;;;;;0.72;87.83;142449.08;1748497;81;20994;-64
2022/02/05 11:55:28;;;;;;;42.15;22.27;;;;;;;0.61;88.31;142424.20;1747478;82;21036;-59
2022/02/05 11:58:05;;;;;;;43.80;23.45;;;;;;;0.68;88.11;142439.09;1752730;81;20969;-62
2022/02/05 12:00:43;;;;;;;38.48;21.25;;;;;;;0.68;87.54;142439.09;1780019;81;20980;-57
2022/02/05 12:03:30;;;;;;;41.20;23.40;;;;;;;0.58;88.10;142416.70;1774015;81;20964;-59
2022/02/05 12:06:02;;;;;;;39.92;21.97;;;;;;;0.56;87.89;142411.77;1767025;81;20980;-63
2022/02/05 12:08:30;;;;;;;39.33;22.02;;;;;;;0.63;87.89;142429.14;1769102;81;21066;-61
2022/02/05 12:10:57;;;;;;;41.63;22.65;;;;;;;0.59;87.77;142419.22;1769074;81;20968;-58
2022/02/05 12:13:39;;;;;;;47.10;23.40;;;;;;;0.65;87.55;142434.13;1755459;81;21005;-61
2022/02/05 12:16:12;;;;;;;44.05;24.70;;;;;;;0.74;87.53;142454.02;1748027;81;21009;-59
2022/02/05 12:19:15;;;;;;;42.25;23.30;;;;;;;0.86;87.27;142485.11;1748005;82;20997;-60
2022/02/05 12:22:03;;;;;;;43.70;24.50;;;;;;;0.98;86.52;142513.73;1746796;81;20976;-61
2022/02/05 12:24:38;;;;;;;45.73;24.72;;;;;;;1.08;86.04;142537.38;1776181;80;20933;-62
2022/02/05 12:27:24;;;;;;;40.85;22.87;;;;;;;1.04;85.40;142528.69;1746592;81;20969;-58
2022/02/05 12:29:51;;;;;;;42.48;23.12;;;;;;;1.07;85.28;142536.16;1746984;82;21001;-60
2022/02/05 12:32:20;;;;;;;43.15;23.85;;;;;;;1.02;85.08;142523.70;1754604;81;21467;-58
2022/02/05 12:34:48;;;;;;;42.53;23.80;;;;;;;1.05;85.09;142531.16;1776858;79;21009;-60
2022/02/05 12:37:15;;;;;;;44.27;24.25;;;;;;;1.12;84.74;142546.08;1776311;81;20960;-59
2022/02/05 12:39:42;;;;;;;44.08;24.63;;;;;;;1.14;84.51;142551.06;1769485;80;21140;-61
2022/02/05 12:42:14;;;;;;;47.75;23.38;;;;;;;1.12;84.49;142547.36;1768100;81;21016;-61
2022/02/05 12:44:45;;;;;;;46.45;24.02;;;;;;;1.10;84.36;142541.12;1747676;82;20972;-58
2022/02/05 12:47:26;;;;;;;39.23;21.05;;;;;;;1.06;84.48;142532.39;1748861;81;21478;-59
2022/02/05 12:49:56;;;;;;;39.18;22.82;;;;;;;1.07;84.33;142536.16;1747773;81;21009;-60
2022/02/05 12:52:26;;;;;;;;;;;;;;;1.06;84.36;142533.63;1751885;81;21001;-62
2022/02/05 12:55:00;;;;;;;47.05;22.60;;;;;;;1.07;84.30;142534.91;1719127;83;20107;-58
2022/02/05 12:57:23;;;;;;;41.08;20.88;;;;;;;1.12;84.35;142546.08;1718080;83;21028;-62
2022/02/05 12:59:50;;;;;;;43.40;23.07;;;;;;;1.11;83.89;142544.84;1719187;83;20981;-62
2022/02/05 13:02:18;;;;;;;45.45;23.47;;;;;;;1.07;84.13;142536.16;1723651;81;20973;-64
2022/02/05 13:04:50;;;;;;;40.90;22.77;;;;;;;1.07;84.17;142536.16;1772156;81;20968;-63
2022/02/05 13:07:21;;;;;;;38.65;22.73;;;;;;;1.06;83.96;142533.63;1769315;80;21457;-60
2022/02/05 13:09:59;;;;;;;44.60;21.80;;;;;;;1.04;83.99;142527.41;1769778;81;20957;-61
2022/02/05 13:12:38;;;;;;;40.75;23.12;;;;;;;1.08;83.89;142538.62;1752018;80;20987;-59
2022/02/05 13:15:22;;;;;;;35.13;20.57;;;;;;;1.16;83.49;142556.05;1749245;82;21003;-60
2022/02/05 13:18:14;;;;;;;43.63;23.87;;;;;;;1.22;83.00;142570.95;1749304;81;21024;-60
2022/02/05 13:34:28;;;;;;;40.80;22.30;;;;;;;1.39;81.27;142613.28;1769508;81;21011;-58
2022/02/05 13:42:19;;;;;;;39.38;23.85;;;;;;;1.31;81.67;142593.38;1749117;81;20985;-58
2022/02/05 13:44:58;;;;;;;39.38;21.70;;;;;;;1.36;81.80;142605.81;1749024;81;20969;-62
2022/02/05 13:47:37;;;;;;;51.28;24.18;;;;;;;1.38;81.63;142610.80;1749062;82;20992;-62
2022/02/05 13:50:15;;;;;;;34.85;20.72;;;;;;;1.39;81.61;142613.28;1765014;81;20995;-63
2022/02/05 13:52:52;;;;;;;38.13;20.80;;;;;;;1.40;81.71;142614.50;1771297;80;21435;-60
2022/02/05 13:55:40;;;;;;;37.17;21.73;;;;;;;1.40;81.79;142614.50;1769281;80;20973;-58
2022/02/05 13:58:11;;;;;;;38.13;19.25;;;;;;;1.39;81.94;142613.28;1759560;80;21493;-60
2022/02/05 14:00:52;;;;;;;;;;;;;;;1.35;82.17;142603.34;1746723;82;20983;-61
2022/02/05 14:03:36;;;;;;;36.60;20.20;;;;;;;1.32;82.61;142595.84;1744110;82;20117;-63
2022/02/05 14:06:10;;;;;;;34.98;20.52;;;;;;;1.27;83.21;142584.69;1744066;82;20956;-61
2022/02/05 14:08:47;;;;;;;44.20;21.52;;;;;;;1.27;83.60;142583.41;1768548;80;20945;-58
2022/02/05 14:11:30;;;;;;;40.80;22.65;;;;;;;1.29;83.93;142588.39;1765945;80;21494;-60
2022/02/05 14:14:12;;;;;;;35.68;19.90;;;;;;;1.28;84.14;142587.16;1769836;80;20960;-61
2022/02/05 14:16:40;;;;;;;39.08;21.65;;;;;;;1.29;84.35;142588.39;1774345;79;21438;-60
2022/02/05 14:19:07;;;;;;;37.48;21.73;;;;;;;1.29;84.64;142588.39;1681144;85;21117;-59
2022/02/05 14:21:43;;;;;;;43.87;23.45;;;;;;;1.27;84.81;142583.41;1714635;82;21537;-64
2022/02/05 14:24:23;;;;;;;35.63;20.65;;;;;;;1.22;85.16;142570.95;1739558;81;20984;-61
2022/02/05 14:27:05;;;;;;;36.98;20.32;;;;;;;1.18;85.22;142562.27;1747331;81;20948;-61
2022/02/05 14:29:44;;;;;;;37.33;21.85;;;;;;;1.17;85.47;142559.80;1743898;81;20972;-58
2022/02/05 14:32:22;;;;;;;39.83;20.95;;;;;;;1.16;85.86;142556.05;1743214;82;21059;-61
2022/02/05 14:35:01;;;;;;;40.40;21.57;;;;;;;1.12;86.24;142547.36;1757498;81;20969;-60
2022/02/05 14:42:37;;;;;;;37.33;20.75;;;;;;;1.16;86.78;142556.05;1769619;81;20948;-60
2022/02/05 14:45:05;;;;;;;37.95;20.80;;;;;;;1.18;86.88;142561.03;1754427;81;20960;-64
2022/02/05 14:47:32;;;;;;;45.15;23.32;;;;;;;1.16;86.85;142557.28;1743887;82;20980;-58